sensor_id;sensor_type;location;lat;lon;timestamp;P1;durP1;ratioP1;P2;durP2;ratioP2
75932;SDS011;64803;52.356;5.310;2023-08-06T00:01:05;27.58;;;12.27;;
75932;SDS011;64803;52.356;5.310;2023-08-06T00:03:31;21.30;;;11.27;;
75932;SDS011;64803;52.356;5.310;2023-08-06T00:05:57;23.40;;;12.00;;
75932;SDS011;64803;52.356;5.310;2023-08-06T00:08:23;26.02;;;11.98;;
75932;SDS011;64803;52.356;5.310;2023-08-06T00:10:49;22.73;;;10.85;;
75932;SDS011;64803;52.356;5.310;2023-08-06T00:13:15;22.73;;;11.57;;
75932;SDS011;64803;52.356;5.310;2023-08-06T00:15:41;22.17;;;11.52;;
75932;SDS011;64803;52.356;5.310;2023-08-06T00:18:07;21.77;;;10.93;;
75932;SDS011;64803;52.356;5.310;2023-08-06T00:20:33;20.98;;;10.25;;
75932;SDS011;64803;52.356;5.310;2023-08-06T00:22:59;23.25;;;10.20;;
75932;SDS011;64803;52.356;5.310;2023-08-06T00:25:25;20.60;;;10.55;;
75932;SDS011;64803;52.356;5.310;2023-08-06T00:27:51;21.15;;;10.65;;
75932;SDS011;64803;52.356;5.310;2023-08-06T00:30:17;25.08;;;11.00;;
75932;SDS011;64803;52.356;5.310;2023-08-06T00:32:43;20.10;;;9.70;;
75932;SDS011;64803;52.356;5.310;2023-08-06T00:35:10;20.50;;;9.93;;
75932;SDS011;64803;52.356;5.310;2023-08-06T00:37:36;20.13;;;9.98;;
75932;SDS011;64803;52.356;5.310;2023-08-06T00:40:02;21.80;;;10.23;;
75932;SDS011;64803;52.356;5.310;2023-08-06T00:42:28;20.40;;;8.75;;
75932;SDS011;64803;52.356;5.310;2023-08-06T00:44:55;17.73;;;8.68;;
75932;SDS011;64803;52.356;5.310;2023-08-06T00:47:21;19.80;;;8.35;;
75932;SDS011;64803;52.356;5.310;2023-08-06T00:49:47;17.77;;;8.40;;
75932;SDS011;64803;52.356;5.310;2023-08-06T00:52:13;18.30;;;8.02;;
75932;SDS011;64803;52.356;5.310;2023-08-06T00:54:40;20.05;;;8.55;;
75932;SDS011;64803;52.356;5.310;2023-08-06T00:57:07;18.55;;;9.57;;
75932;SDS011;64803;52.356;5.310;2023-08-06T01:02:00;18.13;;;9.02;;
75932;SDS011;64803;52.356;5.310;2023-08-06T01:04:27;18.23;;;7.95;;
75932;SDS011;64803;52.356;5.310;2023-08-06T01:14:53;19.52;;;8.48;;
75932;SDS011;64803;52.356;5.310;2023-08-06T01:17:26;19.77;;;9.27;;
75932;SDS011;64803;52.356;5.310;2023-08-06T01:19:55;18.13;;;8.68;;
75932;SDS011;64803;52.356;5.310;2023-08-06T01:22:22;20.95;;;10.63;;
75932;SDS011;64803;52.356;5.310;2023-08-06T01:24:49;19.58;;;10.05;;
75932;SDS011;64803;52.356;5.310;2023-08-06T01:30:06;21.80;;;10.70;;
75932;SDS011;64803;52.356;5.310;2023-08-06T01:32:53;21.65;;;10.93;;
75932;SDS011;64803;52.356;5.310;2023-08-06T01:35:27;24.60;;;10.88;;
75932;SDS011;64803;52.356;5.310;2023-08-06T01:37:54;23.98;;;11.93;;
75932;SDS011;64803;52.356;5.310;2023-08-06T01:40:23;26.38;;;12.65;;
75932;SDS011;64803;52.356;5.310;2023-08-06T01:42:49;25.40;;;12.50;;
75932;SDS011;64803;52.356;5.310;2023-08-06T01:45:15;27.27;;;13.20;;
75932;SDS011;64803;52.356;5.310;2023-08-06T01:47:41;26.92;;;12.88;;
75932;SDS011;64803;52.356;5.310;2023-08-06T01:50:07;25.80;;;13.15;;
75932;SDS011;64803;52.356;5.310;2023-08-06T01:52:33;28.90;;;13.20;;
75932;SDS011;64803;52.356;5.310;2023-08-06T01:54:59;25.50;;;12.43;;
75932;SDS011;64803;52.356;5.310;2023-08-06T01:57:25;30.08;;;15.07;;
75932;SDS011;64803;52.356;5.310;2023-08-06T01:59:51;32.42;;;15.40;;
75932;SDS011;64803;52.356;5.310;2023-08-06T02:02:17;29.05;;;13.07;;
75932;SDS011;64803;52.356;5.310;2023-08-06T02:04:43;29.50;;;14.63;;
75932;SDS011;64803;52.356;5.310;2023-08-06T02:07:10;32.05;;;15.90;;
75932;SDS011;64803;52.356;5.310;2023-08-06T02:09:36;27.80;;;12.85;;
75932;SDS011;64803;52.356;5.310;2023-08-06T02:12:02;32.60;;;14.35;;
75932;SDS011;64803;52.356;5.310;2023-08-06T02:14:29;34.40;;;15.13;;
75932;SDS011;64803;52.356;5.310;2023-08-06T02:16:55;34.00;;;15.52;;
75932;SDS011;64803;52.356;5.310;2023-08-06T02:19:22;31.60;;;15.68;;
75932;SDS011;64803;52.356;5.310;2023-08-06T02:21:48;34.20;;;15.55;;
75932;SDS011;64803;52.356;5.310;2023-08-06T02:24:14;30.55;;;15.20;;
75932;SDS011;64803;52.356;5.310;2023-08-06T02:26:40;37.53;;;16.80;;
75932;SDS011;64803;52.356;5.310;2023-08-06T02:29:06;37.72;;;17.10;;
75932;SDS011;64803;52.356;5.310;2023-08-06T02:31:32;29.80;;;16.02;;
75932;SDS011;64803;52.356;5.310;2023-08-06T02:33:58;33.13;;;16.10;;
75932;SDS011;64803;52.356;5.310;2023-08-06T02:36:24;31.20;;;15.52;;
75932;SDS011;64803;52.356;5.310;2023-08-06T02:38:52;28.40;;;14.48;;
75932;SDS011;64803;52.356;5.310;2023-08-06T02:41:18;35.50;;;16.02;;
75932;SDS011;64803;52.356;5.310;2023-08-06T02:43:44;33.40;;;16.65;;
75932;SDS011;64803;52.356;5.310;2023-08-06T02:46:10;34.00;;;16.05;;
75932;SDS011;64803;52.356;5.310;2023-08-06T02:48:36;31.00;;;16.25;;
75932;SDS011;64803;52.356;5.310;2023-08-06T02:51:03;34.33;;;16.33;;
75932;SDS011;64803;52.356;5.310;2023-08-06T02:53:31;35.40;;;16.83;;
75932;SDS011;64803;52.356;5.310;2023-08-06T02:56:00;39.65;;;16.90;;
75932;SDS011;64803;52.356;5.310;2023-08-06T02:58:33;34.47;;;15.95;;
75932;SDS011;64803;52.356;5.310;2023-08-06T03:01:14;33.55;;;16.98;;
75932;SDS011;64803;52.356;5.310;2023-08-06T03:03:47;33.50;;;16.17;;
75932;SDS011;64803;52.356;5.310;2023-08-06T03:06:19;32.03;;;14.95;;
75932;SDS011;64803;52.356;5.310;2023-08-06T03:08:49;35.22;;;17.13;;
75932;SDS011;64803;52.356;5.310;2023-08-06T03:11:15;35.45;;;16.05;;
75932;SDS011;64803;52.356;5.310;2023-08-06T03:13:41;31.95;;;15.27;;
75932;SDS011;64803;52.356;5.310;2023-08-06T03:16:08;37.08;;;16.45;;
75932;SDS011;64803;52.356;5.310;2023-08-06T03:18:34;29.90;;;16.02;;
75932;SDS011;64803;52.356;5.310;2023-08-06T03:21:03;29.08;;;14.45;;
75932;SDS011;64803;52.356;5.310;2023-08-06T03:23:30;31.02;;;14.52;;
75932;SDS011;64803;52.356;5.310;2023-08-06T03:26:03;30.88;;;15.73;;
75932;SDS011;64803;52.356;5.310;2023-08-06T03:28:31;34.50;;;16.15;;
75932;SDS011;64803;52.356;5.310;2023-08-06T03:33:32;31.25;;;15.15;;
75932;SDS011;64803;52.356;5.310;2023-08-06T03:35:59;29.35;;;14.82;;
75932;SDS011;64803;52.356;5.310;2023-08-06T03:38:26;31.00;;;15.70;;
75932;SDS011;64803;52.356;5.310;2023-08-06T03:40:53;31.52;;;16.15;;
75932;SDS011;64803;52.356;5.310;2023-08-06T03:43:19;33.78;;;16.15;;
75932;SDS011;64803;52.356;5.310;2023-08-06T03:45:46;35.35;;;17.33;;
75932;SDS011;64803;52.356;5.310;2023-08-06T03:48:12;35.63;;;16.48;;
75932;SDS011;64803;52.356;5.310;2023-08-06T03:50:38;29.63;;;16.45;;
75932;SDS011;64803;52.356;5.310;2023-08-06T03:53:04;29.70;;;15.15;;
75932;SDS011;64803;52.356;5.310;2023-08-06T03:55:31;30.38;;;14.52;;
75932;SDS011;64803;52.356;5.310;2023-08-06T03:57:57;31.13;;;15.55;;
75932;SDS011;64803;52.356;5.310;2023-08-06T04:00:23;31.20;;;15.02;;
75932;SDS011;64803;52.356;5.310;2023-08-06T04:02:52;32.90;;;15.82;;
75932;SDS011;64803;52.356;5.310;2023-08-06T04:05:18;30.13;;;14.77;;
75932;SDS011;64803;52.356;5.310;2023-08-06T04:07:44;31.45;;;15.43;;
75932;SDS011;64803;52.356;5.310;2023-08-06T04:10:10;30.40;;;15.43;;
75932;SDS011;64803;52.356;5.310;2023-08-06T04:12:36;34.35;;;15.23;;
75932;SDS011;64803;52.356;5.310;2023-08-06T04:15:05;31.60;;;15.65;;
75932;SDS011;64803;52.356;5.310;2023-08-06T04:17:31;30.20;;;14.15;;
75932;SDS011;64803;52.356;5.310;2023-08-06T04:19:57;32.40;;;16.10;;
75932;SDS011;64803;52.356;5.310;2023-08-06T04:22:24;32.05;;;15.23;;
75932;SDS011;64803;52.356;5.310;2023-08-06T04:24:51;28.92;;;14.63;;
75932;SDS011;64803;52.356;5.310;2023-08-06T04:27:18;34.45;;;15.32;;
75932;SDS011;64803;52.356;5.310;2023-08-06T04:29:45;32.22;;;15.13;;
75932;SDS011;64803;52.356;5.310;2023-08-06T04:32:13;32.60;;;15.93;;
75932;SDS011;64803;52.356;5.310;2023-08-06T04:34:44;32.15;;;16.33;;
75932;SDS011;64803;52.356;5.310;2023-08-06T04:37:10;30.73;;;14.98;;
75932;SDS011;64803;52.356;5.310;2023-08-06T04:39:37;34.58;;;15.85;;
75932;SDS011;64803;52.356;5.310;2023-08-06T04:42:03;33.45;;;15.75;;
75932;SDS011;64803;52.356;5.310;2023-08-06T04:44:31;31.23;;;14.63;;
75932;SDS011;64803;52.356;5.310;2023-08-06T04:46:57;37.55;;;17.20;;
75932;SDS011;64803;52.356;5.310;2023-08-06T04:49:23;38.70;;;17.15;;
75932;SDS011;64803;52.356;5.310;2023-08-06T04:51:49;31.15;;;15.13;;
75932;SDS011;64803;52.356;5.310;2023-08-06T04:54:15;34.90;;;15.88;;
75932;SDS011;64803;52.356;5.310;2023-08-06T04:56:41;41.53;;;17.77;;
75932;SDS011;64803;52.356;5.310;2023-08-06T04:59:07;43.45;;;17.33;;
75932;SDS011;64803;52.356;5.310;2023-08-06T05:01:33;46.20;;;17.55;;
75932;SDS011;64803;52.356;5.310;2023-08-06T05:03:59;35.53;;;16.67;;
75932;SDS011;64803;52.356;5.310;2023-08-06T05:06:28;40.50;;;17.98;;
75932;SDS011;64803;52.356;5.310;2023-08-06T05:08:54;36.72;;;16.45;;
75932;SDS011;64803;52.356;5.310;2023-08-06T05:11:20;42.75;;;18.02;;
75932;SDS011;64803;52.356;5.310;2023-08-06T05:13:46;35.03;;;17.30;;
75932;SDS011;64803;52.356;5.310;2023-08-06T05:16:12;38.13;;;17.25;;
75932;SDS011;64803;52.356;5.310;2023-08-06T05:18:38;36.58;;;16.65;;
75932;SDS011;64803;52.356;5.310;2023-08-06T05:21:04;35.33;;;16.23;;
75932;SDS011;64803;52.356;5.310;2023-08-06T05:23:30;37.75;;;17.27;;
75932;SDS011;64803;52.356;5.310;2023-08-06T05:25:56;32.45;;;15.52;;
75932;SDS011;64803;52.356;5.310;2023-08-06T05:28:22;32.05;;;15.70;;
75932;SDS011;64803;52.356;5.310;2023-08-06T05:30:48;28.50;;;14.57;;
75932;SDS011;64803;52.356;5.310;2023-08-06T05:33:14;33.35;;;15.07;;
75932;SDS011;64803;52.356;5.310;2023-08-06T05:35:41;32.38;;;16.33;;
75932;SDS011;64803;52.356;5.310;2023-08-06T05:38:07;30.63;;;15.77;;
75932;SDS011;64803;52.356;5.310;2023-08-06T05:40:34;31.85;;;14.52;;
75932;SDS011;64803;52.356;5.310;2023-08-06T05:43:00;30.17;;;14.57;;
75932;SDS011;64803;52.356;5.310;2023-08-06T05:45:26;32.00;;;15.43;;
75932;SDS011;64803;52.356;5.310;2023-08-06T05:47:52;28.77;;;14.57;;
75932;SDS011;64803;52.356;5.310;2023-08-06T05:50:19;29.63;;;15.10;;
75932;SDS011;64803;52.356;5.310;2023-08-06T05:52:45;28.42;;;13.30;;
75932;SDS011;64803;52.356;5.310;2023-08-06T05:55:11;27.83;;;14.23;;
75932;SDS011;64803;52.356;5.310;2023-08-06T05:57:37;31.35;;;14.70;;
75932;SDS011;64803;52.356;5.310;2023-08-06T06:00:04;29.10;;;14.13;;
75932;SDS011;64803;52.356;5.310;2023-08-06T06:02:38;27.65;;;13.57;;
75932;SDS011;64803;52.356;5.310;2023-08-06T06:05:04;31.23;;;15.55;;
75932;SDS011;64803;52.356;5.310;2023-08-06T06:07:30;30.48;;;13.98;;
75932;SDS011;64803;52.356;5.310;2023-08-06T06:09:56;28.30;;;14.60;;
75932;SDS011;64803;52.356;5.310;2023-08-06T06:12:22;30.15;;;15.00;;
75932;SDS011;64803;52.356;5.310;2023-08-06T06:14:48;31.42;;;15.60;;
75932;SDS011;64803;52.356;5.310;2023-08-06T06:17:14;29.48;;;14.90;;
75932;SDS011;64803;52.356;5.310;2023-08-06T06:19:40;36.58;;;15.65;;
75932;SDS011;64803;52.356;5.310;2023-08-06T06:22:06;30.58;;;14.35;;
75932;SDS011;64803;52.356;5.310;2023-08-06T06:24:32;33.72;;;14.35;;
75932;SDS011;64803;52.356;5.310;2023-08-06T06:26:58;30.55;;;15.05;;
75932;SDS011;64803;52.356;5.310;2023-08-06T06:29:24;31.25;;;14.05;;
75932;SDS011;64803;52.356;5.310;2023-08-06T06:31:50;25.92;;;13.30;;
75932;SDS011;64803;52.356;5.310;2023-08-06T06:34:16;26.13;;;13.65;;
75932;SDS011;64803;52.356;5.310;2023-08-06T06:36:42;29.65;;;13.98;;
75932;SDS011;64803;52.356;5.310;2023-08-06T06:39:08;28.55;;;13.98;;
75932;SDS011;64803;52.356;5.310;2023-08-06T06:41:34;25.13;;;11.73;;
75932;SDS011;64803;52.356;5.310;2023-08-06T06:44:09;24.92;;;11.95;;
75932;SDS011;64803;52.356;5.310;2023-08-06T06:46:35;27.30;;;12.48;;
75932;SDS011;64803;52.356;5.310;2023-08-06T06:49:01;24.50;;;12.90;;
75932;SDS011;64803;52.356;5.310;2023-08-06T06:51:27;24.25;;;12.40;;
75932;SDS011;64803;52.356;5.310;2023-08-06T06:53:53;25.50;;;12.80;;
75932;SDS011;64803;52.356;5.310;2023-08-06T06:56:19;26.20;;;13.10;;
75932;SDS011;64803;52.356;5.310;2023-08-06T06:58:45;28.13;;;13.18;;
75932;SDS011;64803;52.356;5.310;2023-08-06T07:01:11;27.40;;;14.02;;
75932;SDS011;64803;52.356;5.310;2023-08-06T07:03:38;27.33;;;13.43;;
75932;SDS011;64803;52.356;5.310;2023-08-06T07:06:04;23.80;;;12.50;;
75932;SDS011;64803;52.356;5.310;2023-08-06T07:08:31;22.75;;;12.32;;
75932;SDS011;64803;52.356;5.310;2023-08-06T07:11:03;24.58;;;12.30;;
75932;SDS011;64803;52.356;5.310;2023-08-06T07:13:30;25.10;;;12.80;;
75932;SDS011;64803;52.356;5.310;2023-08-06T07:15:56;20.38;;;11.63;;
75932;SDS011;64803;52.356;5.310;2023-08-06T07:18:22;21.63;;;10.45;;
75932;SDS011;64803;52.356;5.310;2023-08-06T07:20:49;22.60;;;11.57;;
75932;SDS011;64803;52.356;5.310;2023-08-06T07:23:16;22.23;;;11.63;;
75932;SDS011;64803;52.356;5.310;2023-08-06T07:25:43;23.08;;;11.65;;
75932;SDS011;64803;52.356;5.310;2023-08-06T07:28:09;22.85;;;11.68;;
75932;SDS011;64803;52.356;5.310;2023-08-06T07:30:39;21.98;;;11.27;;
75932;SDS011;64803;52.356;5.310;2023-08-06T07:33:06;21.23;;;11.20;;
75932;SDS011;64803;52.356;5.310;2023-08-06T07:35:32;19.35;;;10.27;;
75932;SDS011;64803;52.356;5.310;2023-08-06T07:37:58;20.85;;;11.30;;
75932;SDS011;64803;52.356;5.310;2023-08-06T07:40:24;19.38;;;9.95;;
75932;SDS011;64803;52.356;5.310;2023-08-06T07:42:51;20.23;;;10.40;;
75932;SDS011;64803;52.356;5.310;2023-08-06T07:45:17;17.40;;;9.50;;
75932;SDS011;64803;52.356;5.310;2023-08-06T07:47:43;18.90;;;10.15;;
75932;SDS011;64803;52.356;5.310;2023-08-06T07:50:09;20.17;;;10.18;;
75932;SDS011;64803;52.356;5.310;2023-08-06T07:52:35;18.95;;;10.48;;
75932;SDS011;64803;52.356;5.310;2023-08-06T07:55:01;19.08;;;10.05;;
75932;SDS011;64803;52.356;5.310;2023-08-06T07:57:30;17.95;;;9.20;;
75932;SDS011;64803;52.356;5.310;2023-08-06T07:59:57;21.08;;;9.68;;
75932;SDS011;64803;52.356;5.310;2023-08-06T08:02:23;18.90;;;9.68;;
75932;SDS011;64803;52.356;5.310;2023-08-06T08:04:50;16.17;;;7.88;;
75932;SDS011;64803;52.356;5.310;2023-08-06T08:07:16;18.90;;;9.93;;
75932;SDS011;64803;52.356;5.310;2023-08-06T08:09:42;22.80;;;11.55;;
75932;SDS011;64803;52.356;5.310;2023-08-06T08:12:08;23.77;;;11.85;;
75932;SDS011;64803;52.356;5.310;2023-08-06T08:14:34;24.10;;;11.73;;
75932;SDS011;64803;52.356;5.310;2023-08-06T08:17:01;15.90;;;8.20;;
75932;SDS011;64803;52.356;5.310;2023-08-06T08:19:28;13.48;;;5.57;;
75932;SDS011;64803;52.356;5.310;2023-08-06T08:21:55;20.52;;;8.27;;
75932;SDS011;64803;52.356;5.310;2023-08-06T08:24:21;17.02;;;6.13;;
75932;SDS011;64803;52.356;5.310;2023-08-06T08:26:52;9.35;;;4.30;;
75932;SDS011;64803;52.356;5.310;2023-08-06T08:29:19;11.80;;;3.85;;
75932;SDS011;64803;52.356;5.310;2023-08-06T08:34:17;7.55;;;2.78;;
75932;SDS011;64803;52.356;5.310;2023-08-06T08:36:43;9.30;;;4.05;;
75932;SDS011;64803;52.356;5.310;2023-08-06T08:39:13;12.25;;;4.63;;
75932;SDS011;64803;52.356;5.310;2023-08-06T08:41:40;11.32;;;5.25;;
75932;SDS011;64803;52.356;5.310;2023-08-06T08:44:08;7.40;;;3.47;;
75932;SDS011;64803;52.356;5.310;2023-08-06T08:46:39;10.88;;;4.30;;
75932;SDS011;64803;52.356;5.310;2023-08-06T08:49:06;13.27;;;5.47;;
75932;SDS011;64803;52.356;5.310;2023-08-06T08:51:32;9.68;;;4.13;;
75932;SDS011;64803;52.356;5.310;2023-08-06T08:54:02;11.43;;;4.13;;
75932;SDS011;64803;52.356;5.310;2023-08-06T08:56:29;11.07;;;4.70;;
75932;SDS011;64803;52.356;5.310;2023-08-06T08:58:56;10.73;;;5.50;;
75932;SDS011;64803;52.356;5.310;2023-08-06T09:01:22;19.85;;;5.78;;
75932;SDS011;64803;52.356;5.310;2023-08-06T09:03:48;17.45;;;6.57;;
75932;SDS011;64803;52.356;5.310;2023-08-06T09:06:15;10.23;;;4.32;;
75932;SDS011;64803;52.356;5.310;2023-08-06T09:08:50;9.63;;;4.28;;
75932;SDS011;64803;52.356;5.310;2023-08-06T09:11:19;10.18;;;4.40;;
75932;SDS011;64803;52.356;5.310;2023-08-06T09:13:47;10.13;;;4.95;;
75932;SDS011;64803;52.356;5.310;2023-08-06T09:16:13;10.35;;;3.47;;
75932;SDS011;64803;52.356;5.310;2023-08-06T09:18:39;9.68;;;4.10;;
75932;SDS011;64803;52.356;5.310;2023-08-06T09:21:05;10.60;;;4.05;;
75932;SDS011;64803;52.356;5.310;2023-08-06T09:23:31;9.88;;;4.25;;
75932;SDS011;64803;52.356;5.310;2023-08-06T09:25:59;12.32;;;3.65;;
75932;SDS011;64803;52.356;5.310;2023-08-06T09:28:37;10.35;;;4.60;;
75932;SDS011;64803;52.356;5.310;2023-08-06T09:31:09;9.32;;;3.90;;
75932;SDS011;64803;52.356;5.310;2023-08-06T09:33:36;8.48;;;3.20;;
75932;SDS011;64803;52.356;5.310;2023-08-06T09:36:12;16.38;;;4.22;;
75932;SDS011;64803;52.356;5.310;2023-08-06T09:38:39;21.05;;;5.15;;
75932;SDS011;64803;52.356;5.310;2023-08-06T09:41:08;17.52;;;5.47;;
75932;SDS011;64803;52.356;5.310;2023-08-06T09:43:40;11.68;;;4.53;;
75932;SDS011;64803;52.356;5.310;2023-08-06T09:46:11;10.90;;;4.50;;
75932;SDS011;64803;52.356;5.310;2023-08-06T09:48:39;12.55;;;5.03;;
75932;SDS011;64803;52.356;5.310;2023-08-06T09:51:07;12.32;;;5.75;;
75932;SDS011;64803;52.356;5.310;2023-08-06T09:53:34;14.85;;;5.22;;
75932;SDS011;64803;52.356;5.310;2023-08-06T09:56:01;13.85;;;5.63;;
75932;SDS011;64803;52.356;5.310;2023-08-06T09:58:27;19.73;;;7.90;;
75932;SDS011;64803;52.356;5.310;2023-08-06T10:00:55;22.65;;;6.30;;
75932;SDS011;64803;52.356;5.310;2023-08-06T10:03:22;19.33;;;7.97;;
75932;SDS011;64803;52.356;5.310;2023-08-06T10:05:48;13.23;;;6.40;;
75932;SDS011;64803;52.356;5.310;2023-08-06T10:08:14;20.23;;;7.22;;
75932;SDS011;64803;52.356;5.310;2023-08-06T10:10:40;20.70;;;8.40;;
75932;SDS011;64803;52.356;5.310;2023-08-06T10:13:07;20.20;;;6.82;;
75932;SDS011;64803;52.356;5.310;2023-08-06T10:15:34;22.63;;;7.32;;
75932;SDS011;64803;52.356;5.310;2023-08-06T10:20:32;27.05;;;8.32;;
75932;SDS011;64803;52.356;5.310;2023-08-06T10:23:00;17.40;;;6.28;;
75932;SDS011;64803;52.356;5.310;2023-08-06T10:25:30;13.90;;;4.68;;
75932;SDS011;64803;52.356;5.310;2023-08-06T10:27:56;16.23;;;6.60;;
75932;SDS011;64803;52.356;5.310;2023-08-06T10:30:23;21.77;;;5.55;;
75932;SDS011;64803;52.356;5.310;2023-08-06T10:32:50;32.35;;;6.47;;
75932;SDS011;64803;52.356;5.310;2023-08-06T10:35:27;12.55;;;5.32;;
75932;SDS011;64803;52.356;5.310;2023-08-06T10:38:02;16.60;;;6.90;;
75932;SDS011;64803;52.356;5.310;2023-08-06T10:40:29;16.60;;;6.53;;
75932;SDS011;64803;52.356;5.310;2023-08-06T10:43:00;19.63;;;8.18;;
75932;SDS011;64803;52.356;5.310;2023-08-06T10:45:27;19.42;;;7.60;;
75932;SDS011;64803;52.356;5.310;2023-08-06T10:47:55;15.93;;;6.80;;
75932;SDS011;64803;52.356;5.310;2023-08-06T10:50:24;22.27;;;8.18;;
75932;SDS011;64803;52.356;5.310;2023-08-06T10:52:50;23.20;;;8.55;;
75932;SDS011;64803;52.356;5.310;2023-08-06T11:00:16;25.88;;;8.57;;
75932;SDS011;64803;52.356;5.310;2023-08-06T11:02:42;20.50;;;8.75;;
75932;SDS011;64803;52.356;5.310;2023-08-06T11:05:09;22.02;;;9.27;;
75932;SDS011;64803;52.356;5.310;2023-08-06T11:07:37;30.67;;;10.80;;
75932;SDS011;64803;52.356;5.310;2023-08-06T11:10:04;34.15;;;10.60;;
75932;SDS011;64803;52.356;5.310;2023-08-06T11:12:31;29.35;;;9.90;;
75932;SDS011;64803;52.356;5.310;2023-08-06T11:14:58;30.27;;;7.65;;
75932;SDS011;64803;52.356;5.310;2023-08-06T11:17:24;18.98;;;7.18;;
75932;SDS011;64803;52.356;5.310;2023-08-06T11:19:52;32.40;;;9.32;;
75932;SDS011;64803;52.356;5.310;2023-08-06T11:22:22;22.73;;;8.40;;
75932;SDS011;64803;52.356;5.310;2023-08-06T11:24:48;37.08;;;10.90;;
75932;SDS011;64803;52.356;5.310;2023-08-06T11:27:15;21.70;;;7.35;;
75932;SDS011;64803;52.356;5.310;2023-08-06T11:29:42;26.05;;;8.82;;
75932;SDS011;64803;52.356;5.310;2023-08-06T11:32:09;28.63;;;8.43;;
75932;SDS011;64803;52.356;5.310;2023-08-06T11:34:36;14.80;;;6.03;;
75932;SDS011;64803;52.356;5.310;2023-08-06T11:37:03;21.13;;;7.82;;
75932;SDS011;64803;52.356;5.310;2023-08-06T11:39:33;22.55;;;8.82;;
75932;SDS011;64803;52.356;5.310;2023-08-06T11:42:03;19.13;;;5.40;;
75932;SDS011;64803;52.356;5.310;2023-08-06T11:44:31;28.33;;;7.75;;
75932;SDS011;64803;52.356;5.310;2023-08-06T11:46:59;19.45;;;7.00;;
75932;SDS011;64803;52.356;5.310;2023-08-06T11:52:18;25.20;;;8.13;;
75932;SDS011;64803;52.356;5.310;2023-08-06T11:54:46;22.40;;;8.60;;
75932;SDS011;64803;52.356;5.310;2023-08-06T11:57:13;22.33;;;6.07;;
75932;SDS011;64803;52.356;5.310;2023-08-06T11:59:41;20.00;;;7.80;;
75932;SDS011;64803;52.356;5.310;2023-08-06T12:02:08;17.77;;;5.80;;
75932;SDS011;64803;52.356;5.310;2023-08-06T12:07:41;13.30;;;6.13;;
75932;SDS011;64803;52.356;5.310;2023-08-06T12:10:09;11.98;;;4.93;;
75932;SDS011;64803;52.356;5.310;2023-08-06T12:12:35;11.63;;;4.28;;
75932;SDS011;64803;52.356;5.310;2023-08-06T12:15:03;12.13;;;4.47;;
75932;SDS011;64803;52.356;5.310;2023-08-06T12:17:30;13.63;;;5.90;;
75932;SDS011;64803;52.356;5.310;2023-08-06T12:19:56;20.35;;;7.07;;
75932;SDS011;64803;52.356;5.310;2023-08-06T12:22:22;18.25;;;7.45;;
75932;SDS011;64803;52.356;5.310;2023-08-06T12:24:48;22.60;;;7.05;;
75932;SDS011;64803;52.356;5.310;2023-08-06T12:27:15;21.02;;;8.23;;
75932;SDS011;64803;52.356;5.310;2023-08-06T12:29:44;18.25;;;6.30;;
75932;SDS011;64803;52.356;5.310;2023-08-06T12:32:13;17.30;;;6.10;;
75932;SDS011;64803;52.356;5.310;2023-08-06T12:34:40;16.05;;;7.43;;
75932;SDS011;64803;52.356;5.310;2023-08-06T12:37:08;17.35;;;7.15;;
75932;SDS011;64803;52.356;5.310;2023-08-06T12:39:35;15.13;;;5.88;;
75932;SDS011;64803;52.356;5.310;2023-08-06T12:42:02;14.18;;;5.35;;
75932;SDS011;64803;52.356;5.310;2023-08-06T12:44:29;11.98;;;5.32;;
75932;SDS011;64803;52.356;5.310;2023-08-06T12:46:56;14.88;;;5.05;;
75932;SDS011;64803;52.356;5.310;2023-08-06T12:49:22;14.65;;;4.65;;
75932;SDS011;64803;52.356;5.310;2023-08-06T12:51:49;15.07;;;5.47;;
75932;SDS011;64803;52.356;5.310;2023-08-06T12:54:18;15.02;;;6.43;;
75932;SDS011;64803;52.356;5.310;2023-08-06T12:56:48;16.45;;;6.07;;
75932;SDS011;64803;52.356;5.310;2023-08-06T12:59:15;18.02;;;6.53;;
75932;SDS011;64803;52.356;5.310;2023-08-06T13:01:42;15.80;;;6.38;;
75932;SDS011;64803;52.356;5.310;2023-08-06T13:04:08;26.55;;;7.20;;
75932;SDS011;64803;52.356;5.310;2023-08-06T13:06:35;17.35;;;7.30;;
75932;SDS011;64803;52.356;5.310;2023-08-06T13:09:02;18.45;;;6.80;;
75932;SDS011;64803;52.356;5.310;2023-08-06T13:11:30;15.60;;;6.57;;
75932;SDS011;64803;52.356;5.310;2023-08-06T13:14:03;18.42;;;7.32;;
75932;SDS011;64803;52.356;5.310;2023-08-06T13:16:30;18.52;;;7.45;;
75932;SDS011;64803;52.356;5.310;2023-08-06T13:18:56;20.55;;;7.72;;
75932;SDS011;64803;52.356;5.310;2023-08-06T13:21:22;21.02;;;7.70;;
75932;SDS011;64803;52.356;5.310;2023-08-06T13:23:48;16.45;;;6.50;;
75932;SDS011;64803;52.356;5.310;2023-08-06T13:26:14;17.27;;;7.32;;
75932;SDS011;64803;52.356;5.310;2023-08-06T13:28:43;15.93;;;5.90;;
75932;SDS011;64803;52.356;5.310;2023-08-06T13:31:10;16.20;;;6.88;;
75932;SDS011;64803;52.356;5.310;2023-08-06T13:33:36;17.15;;;5.95;;
75932;SDS011;64803;52.356;5.310;2023-08-06T13:36:02;12.00;;;5.07;;
75932;SDS011;64803;52.356;5.310;2023-08-06T13:38:28;18.15;;;6.60;;
75932;SDS011;64803;52.356;5.310;2023-08-06T13:40:54;10.77;;;4.82;;
75932;SDS011;64803;52.356;5.310;2023-08-06T13:43:20;9.82;;;4.10;;
75932;SDS011;64803;52.356;5.310;2023-08-06T13:45:46;8.70;;;2.90;;
75932;SDS011;64803;52.356;5.310;2023-08-06T13:48:12;7.18;;;2.33;;
75932;SDS011;64803;52.356;5.310;2023-08-06T13:50:38;11.05;;;3.17;;
75932;SDS011;64803;52.356;5.310;2023-08-06T13:53:04;7.32;;;2.38;;
75932;SDS011;64803;52.356;5.310;2023-08-06T13:55:30;10.90;;;3.47;;
75932;SDS011;64803;52.356;5.310;2023-08-06T13:57:56;11.50;;;3.25;;
75932;SDS011;64803;52.356;5.310;2023-08-06T14:00:22;8.68;;;2.95;;
75932;SDS011;64803;52.356;5.310;2023-08-06T14:02:48;6.20;;;2.15;;
75932;SDS011;64803;52.356;5.310;2023-08-06T14:05:14;8.38;;;2.72;;
75932;SDS011;64803;52.356;5.310;2023-08-06T14:07:40;9.15;;;2.90;;
75932;SDS011;64803;52.356;5.310;2023-08-06T14:10:07;5.60;;;2.38;;
75932;SDS011;64803;52.356;5.310;2023-08-06T14:12:35;6.45;;;2.58;;
75932;SDS011;64803;52.356;5.310;2023-08-06T14:15:01;8.27;;;2.42;;
75932;SDS011;64803;52.356;5.310;2023-08-06T14:19:54;11.00;;;1.90;;
75932;SDS011;64803;52.356;5.310;2023-08-06T14:22:21;4.78;;;1.02;;
75932;SDS011;64803;52.356;5.310;2023-08-06T14:24:48;2.67;;;1.13;;
75932;SDS011;64803;52.356;5.310;2023-08-06T14:27:17;4.03;;;1.25;;
75932;SDS011;64803;52.356;5.310;2023-08-06T14:29:43;3.38;;;1.35;;
75932;SDS011;64803;52.356;5.310;2023-08-06T14:32:09;4.55;;;1.15;;
75932;SDS011;64803;52.356;5.310;2023-08-06T14:34:35;2.92;;;0.82;;
75932;SDS011;64803;52.356;5.310;2023-08-06T14:37:01;3.90;;;1.10;;
75932;SDS011;64803;52.356;5.310;2023-08-06T14:39:27;3.47;;;1.05;;
75932;SDS011;64803;52.356;5.310;2023-08-06T14:41:53;6.57;;;1.15;;
75932;SDS011;64803;52.356;5.310;2023-08-06T14:44:19;5.13;;;1.20;;
75932;SDS011;64803;52.356;5.310;2023-08-06T14:46:45;5.75;;;1.20;;
75932;SDS011;64803;52.356;5.310;2023-08-06T14:49:11;6.82;;;1.30;;
75932;SDS011;64803;52.356;5.310;2023-08-06T14:51:37;4.32;;;1.13;;
75932;SDS011;64803;52.356;5.310;2023-08-06T14:54:04;5.35;;;1.13;;
75932;SDS011;64803;52.356;5.310;2023-08-06T14:56:30;5.68;;;1.20;;
75932;SDS011;64803;52.356;5.310;2023-08-06T14:58:56;4.32;;;0.60;;
75932;SDS011;64803;52.356;5.310;2023-08-06T15:01:22;6.90;;;1.08;;